City Of Vicksburg — WDC2660 — position and weather

sailwx.info

Track history (hours):
 
Tides and Currents Weather Stations Pressure Air Temp Water Temp Dewpoint Dewpoint Depression Visibility Wind Speed Wind Dir Waves Ship Positions

City Of Vicksburg

Owner: Kirby Inland Marine LP, Houston, TX. More information available from US FCC via Universal Licensing System and Coast Guard Vessel Documentation Center.

Last reported at 2017-Jan-16 10:09 UTC. Time now 2017-Jan-23 19:02 UTC.
Position N 32°44' W 091°04'.

Length 349 m; draft 2.9 m.

Type: . MMSI: 366996120.

Date/timePositionNaut miles runAvg speedWind from/ knotsBaromVisibWave heightAir tempDewpointWater temp
2017-Jan-16 10:09N 32°44' W 091°04'5 1.9
2017-Jan-16 07:32N 32°40' W 091°08'4 3.6
2017-Jan-16 06:33N 32°37' W 091°09'4 3.7
2017-Jan-16 05:34N 32°34' W 091°06'4 4.2
2017-Jan-16 04:33N 32°30' W 091°07'4 4.3
2017-Jan-16 03:33N 32°27' W 091°04'4 3.9
2017-Jan-16 02:33N 32°25' W 090°60'3 2.9
2017-Jan-16 01:33N 32°22' W 091°00'4 4.0
2017-Jan-16 00:33N 32°21' W 090°56'3 2.7
2017-Jan-15 23:33N 32°18' W 090°55'4 3.8
2017-Jan-15 22:33N 32°15' W 090°58'4 3.6
2017-Jan-15 21:34N 32°12' W 090°59'4 3.7
2017-Jan-15 20:33N 32°08' W 091°00'3 3.2
2017-Jan-15 19:33N 32°08' W 091°04'2 2.2
2017-Jan-15 18:34N 32°06' W 091°06'4 3.9
2017-Jan-15 17:33N 32°03' W 091°03'8 3.6
2017-Jan-15 15:25N 31°59' W 091°11'  
2017-Jan-11 11:32N 31°59' W 091°11'8 7.8
2017-Jan-11 10:32N 32°03' W 091°03'4 4.3
2017-Jan-11 09:33N 32°07' W 091°03'7 7.5
2017-Jan-11 08:33N 32°14' W 090°59'8 7.6
2017-Jan-11 07:33N 32°20' W 090°54'6 6.5
2017-Jan-11 06:33N 32°25' W 090°60'8 8.0
2017-Jan-11 05:33N 32°30' W 091°07'8 8.2
2017-Jan-11 04:32N 32°38' W 091°09'  
Track history (hours):
 
Tides and Currents Weather Stations Pressure Air Temp Water Temp Dewpoint Dewpoint Depression Visibility Wind Speed Wind Dir Waves Ship Positions

City Of Vicksburg

Owner: Kirby Inland Marine LP, Houston, TX. More information available from US FCC via Universal Licensing System and Coast Guard Vessel Documentation Center.

Last reported at 2017-Jan-16 10:09 UTC. Time now 2017-Jan-23 19:02 UTC.
Position N 32°44' W 091°04'.

Length 349 m; draft 2.9 m.

Type: . MMSI: 366996120.

Date/timePositionNaut miles runAvg speedWind from/ knotsBaromVisibWave heightAir tempDewpointWater temp
2017-Jan-16 10:09N 32°44' W 091°04'5 1.9
2017-Jan-16 07:32N 32°40' W 091°08'4 3.6
2017-Jan-16 06:33N 32°37' W 091°09'4 3.7
2017-Jan-16 05:34N 32°34' W 091°06'4 4.2
2017-Jan-16 04:33N 32°30' W 091°07'4 4.3
2017-Jan-16 03:33N 32°27' W 091°04'4 3.9
2017-Jan-16 02:33N 32°25' W 090°60'3 2.9
2017-Jan-16 01:33N 32°22' W 091°00'4 4.0
2017-Jan-16 00:33N 32°21' W 090°56'3 2.7
2017-Jan-15 23:33N 32°18' W 090°55'4 3.8
2017-Jan-15 22:33N 32°15' W 090°58'4 3.6
2017-Jan-15 21:34N 32°12' W 090°59'4 3.7
2017-Jan-15 20:33N 32°08' W 091°00'3 3.2
2017-Jan-15 19:33N 32°08' W 091°04'2 2.2
2017-Jan-15 18:34N 32°06' W 091°06'4 3.9
2017-Jan-15 17:33N 32°03' W 091°03'8 3.6
2017-Jan-15 15:25N 31°59' W 091°11'  
2017-Jan-11 11:32N 31°59' W 091°11'8 7.8
2017-Jan-11 10:32N 32°03' W 091°03'4 4.3
2017-Jan-11 09:33N 32°07' W 091°03'7 7.5
2017-Jan-11 08:33N 32°14' W 090°59'8 7.6
2017-Jan-11 07:33N 32°20' W 090°54'6 6.5
2017-Jan-11 06:33N 32°25' W 090°60'8 8.0
2017-Jan-11 05:33N 32°30' W 091°07'8 8.2
2017-Jan-11 04:32N 32°38' W 091°09'  

Dump ship's entire track history